Terminal Aerodrome Forecast
Issued by NWS

Current Version | Previous Version | Text Only | Print | Product List | Glossary On
Versions: 1 2 3 4 5 6 7 8 9 10 11 12 13 14 15 16 17 18 19 20 21 22 23 24
000
FTUS41 KOKX 161400 AAA
TAFHPN
TAF AMD
KHPN 161435Z 1615/1712 35006KT 6SM -SHRA BR FEW025 BKN040
     FM161600 32006KT P6SM BKN050
     FM162000 29007KT P6SM SCT050 SCT150
     FM170100 34006KT P6SM FEW050 SCT250
     FM170400 35004KT P6SM SKC
      AMD NOT SKED=

USA.gov is the U.S. government's official web portal to all federal, state and local government web resources and services.